createdAt,value
2023-03-31T00:01:34.398Z,1.40
2023-03-31T00:04:16.442Z,1.35
2023-03-31T00:06:48.676Z,1.40
2023-03-31T00:09:20.949Z,1.60
2023-03-31T00:11:53.471Z,1.50
2023-03-31T00:14:28.043Z,1.23
2023-03-31T00:16:56.127Z,1.90
2023-03-31T00:19:28.640Z,1.77
2023-03-31T00:22:06.416Z,1.73
2023-03-31T00:24:34.201Z,1.77
2023-03-31T00:27:08.424Z,1.25
2023-03-31T00:29:36.406Z,2.72
2023-03-31T00:32:09.388Z,1.85
2023-03-31T00:34:39.383Z,1.70
2023-03-31T00:45:27.490Z,2.15
2023-03-31T00:48:07.282Z,2.35
2023-03-31T00:50:53.019Z,1.83
2023-03-31T00:53:27.428Z,1.90
2023-03-31T00:55:57.597Z,1.77
2023-03-31T00:58:29.419Z,2.25
2023-03-31T01:01:06.021Z,1.63
2023-03-31T01:03:36.727Z,2.03
2023-03-31T01:06:08.409Z,1.90
2023-03-31T01:08:37.775Z,2.50
2023-03-31T01:11:12.835Z,2.20
2023-03-31T01:13:42.445Z,2.45
2023-03-31T01:16:16.213Z,2.20
2023-03-31T01:18:51.120Z,2.28
2023-03-31T01:22:06.971Z,2.22
2023-03-31T01:25:02.073Z,2.30
2023-03-31T01:27:44.102Z,3.42
2023-03-31T01:30:48.540Z,2.88
2023-03-31T01:33:39.599Z,2.40
2023-03-31T01:36:42.858Z,3.10
2023-03-31T01:39:12.412Z,2.20
2023-03-31T01:41:45.776Z,2.85
2023-03-31T01:44:38.251Z,2.58
2023-03-31T01:47:22.789Z,2.70
2023-03-31T01:50:11.147Z,2.55
2023-03-31T01:52:50.499Z,2.38
2023-03-31T01:56:12.207Z,2.67
2023-03-31T01:58:58.156Z,2.22
2023-03-31T02:01:38.785Z,2.55
2023-03-31T02:04:33.460Z,2.33
2023-03-31T02:07:06.576Z,2.33
2023-03-31T02:09:43.503Z,2.10
2023-03-31T02:12:12.679Z,2.00
2023-03-31T02:14:43.947Z,2.42
2023-03-31T02:17:20.493Z,2.42
2023-03-31T02:19:53.600Z,2.88
2023-03-31T02:22:24.053Z,2.33
2023-03-31T02:24:53.378Z,2.63
2023-03-31T02:27:32.370Z,2.28
2023-03-31T02:30:04.872Z,2.05
2023-03-31T02:32:41.661Z,2.47
2023-03-31T02:35:16.737Z,2.70
2023-03-31T02:37:48.738Z,2.28
2023-03-31T02:40:23.753Z,1.88
2023-03-31T02:42:52.796Z,2.40
2023-03-31T02:45:45.583Z,2.20
2023-03-31T02:48:16.597Z,2.75
2023-03-31T02:51:09.317Z,2.17
2023-03-31T02:53:38.936Z,2.67
2023-03-31T02:56:27.905Z,2.20
2023-03-31T02:59:18.628Z,2.30
2023-03-31T03:02:10.951Z,2.60
2023-03-31T03:04:59.465Z,2.33
2023-03-31T03:07:39.272Z,2.10
2023-03-31T03:10:47.196Z,2.77
2023-03-31T03:13:31.385Z,2.10
2023-03-31T03:16:14.286Z,2.28
2023-03-31T03:18:45.988Z,2.50
2023-03-31T03:21:12.773Z,2.35
2023-03-31T03:23:40.023Z,2.20
2023-03-31T03:26:09.281Z,2.30
2023-03-31T03:28:36.948Z,2.30
2023-03-31T03:31:03.808Z,1.90
2023-03-31T03:33:30.820Z,1.75
2023-03-31T03:35:59.410Z,2.10
2023-03-31T03:38:31.016Z,1.92
2023-03-31T03:40:59.924Z,1.77
2023-03-31T03:43:26.713Z,2.10
2023-03-31T03:45:54.675Z,2.42
2023-03-31T03:48:22.015Z,2.17
2023-03-31T03:50:49.092Z,1.80
2023-03-31T03:58:43.215Z,2.15
2023-03-31T04:01:10.038Z,1.90
2023-03-31T04:03:39.082Z,1.88
2023-03-31T04:06:06.434Z,2.50
2023-03-31T04:08:33.640Z,2.13
2023-03-31T04:11:00.787Z,2.80
2023-03-31T04:13:36.441Z,1.83
2023-03-31T04:16:11.526Z,1.80
2023-03-31T04:18:42.918Z,2.63
2023-03-31T04:21:23.376Z,2.10
2023-03-31T04:24:00.748Z,2.42
2023-03-31T04:26:43.574Z,2.30
2023-03-31T04:29:27.263Z,2.40
2023-03-31T04:34:44.317Z,2.10
2023-03-31T04:37:14.778Z,1.77
2023-03-31T04:39:43.586Z,2.20
2023-03-31T04:53:20.324Z,2.50
2023-03-31T04:55:53.081Z,2.08
2023-03-31T04:58:29.609Z,2.45
2023-03-31T05:00:58.920Z,2.50
2023-03-31T05:03:29.559Z,1.90
2023-03-31T05:05:57.192Z,2.63
2023-03-31T05:08:38.672Z,2.38
2023-03-31T05:11:22.614Z,2.20
2023-03-31T05:16:41.188Z,2.33
2023-03-31T05:19:12.706Z,2.38
2023-03-31T05:21:47.834Z,2.87
2023-03-31T05:24:14.685Z,2.50
2023-03-31T05:26:42.434Z,2.53
2023-03-31T05:29:10.507Z,2.55
2023-03-31T05:31:42.012Z,2.80
2023-03-31T05:34:13.795Z,2.00
2023-03-31T05:36:49.108Z,2.28
2023-03-31T05:39:16.575Z,2.53
2023-03-31T05:41:50.565Z,2.53
2023-03-31T05:44:29.412Z,2.40
2023-03-31T05:47:00.229Z,2.97
2023-03-31T05:49:32.698Z,2.00
2023-03-31T05:52:14.238Z,2.13
2023-03-31T05:54:43.339Z,2.70
2023-03-31T05:57:12.336Z,2.55
2023-03-31T05:59:43.218Z,2.60
2023-03-31T06:02:17.311Z,2.70
2023-03-31T06:04:44.445Z,3.30
2023-03-31T06:07:15.791Z,2.45
2023-03-31T06:09:45.840Z,2.30
2023-03-31T06:12:13.145Z,3.13
2023-03-31T06:14:41.839Z,3.60
2023-03-31T06:17:10.619Z,3.10
2023-03-31T06:19:40.699Z,2.83
2023-03-31T06:22:10.992Z,2.97
2023-03-31T06:24:37.870Z,3.28
2023-03-31T06:27:16.887Z,2.70
2023-03-31T06:29:44.044Z,2.42
2023-03-31T06:32:11.893Z,2.58
2023-03-31T06:34:39.134Z,2.50
2023-03-31T06:37:06.644Z,3.22
2023-03-31T06:39:33.748Z,3.47
2023-03-31T06:42:01.670Z,3.20
2023-03-31T06:44:29.545Z,3.50
2023-03-31T06:47:00.227Z,3.17
2023-03-31T06:49:29.438Z,3.75
2023-03-31T06:51:57.697Z,4.47
2023-03-31T06:54:26.865Z,4.30
2023-03-31T06:56:53.872Z,3.70
2023-03-31T06:59:20.953Z,4.20
2023-03-31T07:01:52.705Z,3.97
2023-03-31T07:04:19.821Z,4.20
2023-03-31T07:06:47.589Z,4.88
2023-03-31T07:09:15.639Z,4.45
2023-03-31T07:11:42.479Z,4.13
2023-03-31T07:14:10.656Z,4.30
2023-03-31T07:22:11.063Z,4.80
2023-03-31T07:24:44.269Z,4.68
2023-03-31T07:27:12.720Z,5.20
2023-03-31T07:29:44.464Z,5.78
2023-03-31T07:32:11.366Z,5.57
2023-03-31T07:34:39.250Z,5.15
2023-03-31T07:37:06.268Z,4.80
2023-03-31T07:39:37.146Z,5.95
2023-03-31T07:42:04.759Z,5.20
2023-03-31T07:44:34.107Z,6.18
2023-03-31T07:47:07.166Z,5.13
2023-03-31T07:49:35.269Z,5.30
2023-03-31T07:52:04.266Z,4.43
2023-03-31T07:54:31.356Z,4.38
2023-03-31T07:57:04.044Z,4.47
2023-03-31T07:59:33.632Z,4.00
2023-03-31T08:02:01.482Z,3.97
2023-03-31T08:04:28.490Z,4.10
2023-03-31T08:06:55.217Z,4.35
2023-03-31T08:09:24.017Z,4.95
2023-03-31T08:11:51.050Z,5.60
2023-03-31T08:14:27.224Z,5.60
2023-03-31T08:17:01.737Z,6.10
2023-03-31T08:19:29.766Z,5.13
2023-03-31T08:21:58.103Z,5.97
2023-03-31T08:24:24.778Z,5.80
2023-03-31T08:26:54.168Z,5.63
2023-03-31T08:29:29.582Z,5.63
2023-03-31T08:31:57.812Z,6.10
2023-03-31T08:34:24.755Z,6.18
2023-03-31T08:37:05.621Z,5.72
2023-03-31T08:39:33.940Z,6.15
2023-03-31T08:42:08.171Z,5.75
2023-03-31T08:44:42.973Z,5.43
2023-03-31T08:47:21.412Z,4.78
2023-03-31T08:50:05.073Z,4.60
2023-03-31T08:52:41.709Z,4.82
2023-03-31T08:55:18.018Z,4.65
2023-03-31T08:57:51.954Z,4.82
2023-03-31T09:00:24.194Z,5.43
2023-03-31T09:03:07.291Z,4.53
2023-03-31T09:05:57.255Z,4.40
2023-03-31T09:08:34.098Z,4.35
2023-03-31T09:11:14.353Z,4.50
2023-03-31T09:14:25.464Z,4.43
2023-03-31T09:17:09.104Z,4.07
2023-03-31T09:19:43.437Z,3.95
2023-03-31T09:22:25.749Z,3.80
2023-03-31T09:25:17.560Z,4.30
2023-03-31T09:27:44.971Z,2.97
2023-03-31T09:30:28.074Z,3.05
2023-03-31T09:33:23.003Z,3.30
2023-03-31T09:35:52.082Z,3.08
2023-03-31T09:38:21.125Z,3.10
2023-03-31T09:41:00.255Z,2.60
2023-03-31T09:43:33.984Z,2.83
2023-03-31T09:46:09.203Z,3.20
2023-03-31T09:48:44.513Z,2.97
2023-03-31T09:51:24.649Z,2.35
2023-03-31T09:54:09.478Z,2.60
2023-03-31T09:56:44.551Z,3.00
2023-03-31T09:59:25.370Z,2.35
2023-03-31T10:04:46.611Z,2.53
2023-03-31T10:07:14.075Z,2.63
2023-03-31T10:12:31.665Z,2.47
2023-03-31T10:15:21.845Z,3.10
2023-03-31T10:20:58.488Z,2.90
2023-03-31T10:23:35.995Z,3.50
2023-03-31T10:26:17.854Z,3.20
2023-03-31T10:28:44.879Z,2.50
2023-03-31T10:31:12.111Z,2.80
2023-03-31T10:33:45.220Z,2.78
2023-03-31T10:36:28.542Z,3.67
2023-03-31T10:39:00.559Z,0.90
2023-03-31T10:41:33.042Z,1.50
2023-03-31T10:44:05.748Z,1.42
2023-03-31T10:46:55.749Z,3.08
2023-03-31T10:49:28.486Z,1.67
2023-03-31T10:51:59.058Z,2.33
2023-03-31T10:54:30.619Z,2.15
2023-03-31T11:01:01.720Z,1.70
2023-03-31T11:03:45.901Z,2.30
2023-03-31T11:07:12.459Z,1.40
2023-03-31T11:13:19.724Z,1.30
2023-03-31T11:16:29.055Z,1.10
2023-03-31T11:19:04.090Z,1.10
2023-03-31T11:21:41.560Z,0.80
2023-03-31T11:24:32.613Z,1.30
2023-03-31T11:30:44.989Z,0.80
2023-03-31T11:33:56.123Z,1.20
2023-03-31T11:36:37.178Z,1.40
2023-03-31T11:39:15.143Z,1.17
2023-03-31T11:41:57.551Z,1.90
2023-03-31T11:44:43.486Z,1.20
2023-03-31T11:47:19.304Z,1.80
2023-03-31T11:49:54.204Z,1.55
2023-03-31T11:52:37.154Z,1.65
2023-03-31T11:55:27.818Z,1.80
2023-03-31T11:57:59.216Z,1.67
2023-03-31T12:00:49.876Z,2.03
2023-03-31T12:03:24.051Z,2.05
2023-03-31T12:06:24.824Z,2.40
2023-03-31T12:09:30.576Z,2.08
2023-03-31T12:12:21.197Z,1.50
2023-03-31T12:17:43.228Z,1.75
2023-03-31T12:20:38.241Z,1.77
2023-03-31T12:23:11.470Z,2.25
2023-03-31T12:25:58.174Z,1.98
2023-03-31T12:28:32.363Z,2.85
2023-03-31T12:31:02.569Z,2.83
2023-03-31T12:33:34.264Z,2.90
2023-03-31T12:36:15.841Z,2.60
2023-03-31T12:39:23.078Z,1.17
2023-03-31T12:42:14.791Z,1.00
2023-03-31T12:45:18.505Z,1.48
2023-03-31T12:48:06.413Z,1.15
2023-03-31T12:50:57.428Z,1.35
2023-03-31T12:53:52.192Z,1.35
2023-03-31T12:56:19.669Z,1.50
2023-03-31T12:58:47.247Z,1.60
2023-03-31T13:01:24.341Z,1.17
2023-03-31T13:03:54.640Z,1.80
2023-03-31T13:06:33.981Z,1.67
2023-03-31T13:09:17.840Z,1.10
2023-03-31T13:11:58.297Z,1.27
2023-03-31T13:14:46.272Z,1.13
2023-03-31T13:17:52.134Z,1.10
2023-03-31T13:20:37.886Z,1.73
2023-03-31T13:23:27.543Z,1.08
2023-03-31T13:26:00.387Z,2.35
2023-03-31T13:28:35.647Z,1.35
2023-03-31T13:31:08.387Z,1.50
2023-03-31T13:33:41.525Z,1.70
2023-03-31T13:36:41.770Z,1.80
2023-03-31T13:44:57.383Z,1.05
2023-03-31T13:48:03.209Z,1.15
2023-03-31T13:50:37.845Z,0.80
2023-03-31T13:53:32.684Z,0.70
2023-03-31T13:56:18.215Z,0.60
2023-03-31T13:59:11.783Z,0.52
2023-03-31T14:02:19.069Z,0.30
2023-03-31T14:05:14.195Z,0.35
2023-03-31T14:07:50.371Z,0.30
2023-03-31T14:10:30.442Z,0.47
2023-03-31T14:13:10.999Z,0.40
2023-03-31T14:15:53.197Z,0.50
2023-03-31T14:21:21.786Z,1.05
2023-03-31T14:23:54.661Z,0.80
2023-03-31T14:26:36.992Z,0.70
2023-03-31T14:29:30.466Z,0.50
2023-03-31T14:32:29.197Z,0.60
2023-03-31T14:37:44.525Z,0.50
2023-03-31T14:40:16.835Z,0.60
2023-03-31T14:42:54.418Z,0.63
2023-03-31T14:45:27.897Z,0.60
2023-03-31T14:48:01.316Z,0.93
2023-03-31T14:50:37.139Z,0.95
2023-03-31T14:55:58.582Z,0.88
2023-03-31T15:01:31.820Z,1.17
2023-03-31T15:10:03.334Z,0.93
2023-03-31T15:12:45.432Z,0.90
2023-03-31T15:18:28.957Z,0.95
2023-03-31T15:20:58.996Z,1.17
2023-03-31T15:23:30.082Z,1.30
2023-03-31T15:32:23.416Z,0.70
2023-03-31T15:35:21.024Z,0.85
2023-03-31T15:40:44.722Z,1.20
2023-03-31T15:43:55.880Z,0.90
2023-03-31T15:47:04.055Z,0.98
2023-03-31T15:52:42.465Z,0.98
2023-03-31T15:55:45.315Z,1.42
2023-03-31T16:01:07.714Z,0.80
2023-03-31T16:07:05.796Z,1.40
2023-03-31T16:17:31.446Z,1.75
2023-03-31T16:20:30.552Z,3.03
2023-03-31T16:23:04.012Z,3.38
2023-03-31T16:28:38.512Z,3.10
2023-03-31T16:34:19.967Z,3.15
2023-03-31T16:36:54.169Z,2.40
2023-03-31T16:39:33.294Z,1.90
2023-03-31T16:42:35.164Z,1.45
2023-03-31T16:48:16.767Z,1.92
2023-03-31T16:51:12.547Z,1.75
2023-03-31T16:54:20.077Z,1.70
2023-03-31T16:56:58.288Z,1.95
2023-03-31T17:02:32.299Z,1.75
2023-03-31T17:05:12.754Z,1.83
2023-03-31T17:07:51.693Z,1.50
2023-03-31T17:10:34.468Z,1.58
2023-03-31T17:13:17.828Z,4.22
2023-03-31T17:16:01.440Z,2.70
2023-03-31T17:33:49.830Z,1.88
2023-03-31T17:48:48.286Z,3.23
2023-03-31T17:54:16.888Z,3.90
2023-03-31T17:56:47.228Z,3.15
2023-03-31T17:59:20.426Z,3.28
2023-03-31T18:02:16.523Z,3.22
2023-03-31T18:04:56.413Z,3.30
2023-03-31T18:07:44.189Z,4.85
2023-03-31T18:13:01.188Z,1.50
2023-03-31T18:15:28.193Z,2.03
2023-03-31T18:17:55.343Z,2.58
2023-03-31T18:20:31.025Z,1.85
2023-03-31T18:23:01.555Z,2.38
2023-03-31T18:25:30.881Z,1.60
2023-03-31T18:27:59.184Z,2.08
2023-03-31T18:30:30.151Z,2.67
2023-03-31T18:32:58.822Z,2.08
2023-03-31T18:35:28.098Z,2.17
2023-03-31T18:37:58.141Z,1.60
2023-03-31T18:40:24.780Z,2.70
2023-03-31T18:42:52.537Z,2.22
2023-03-31T18:45:22.353Z,2.47
2023-03-31T18:50:41.434Z,1.50
2023-03-31T18:53:09.336Z,1.50
2023-03-31T18:55:37.636Z,1.50
2023-03-31T18:58:04.627Z,1.60
2023-03-31T19:00:37.426Z,1.30
2023-03-31T19:03:05.949Z,1.75
2023-03-31T19:05:32.937Z,1.50
2023-03-31T19:08:00.801Z,1.20
2023-03-31T19:10:30.953Z,2.65
2023-03-31T19:13:01.542Z,1.60
2023-03-31T19:15:36.968Z,1.88
2023-03-31T19:18:14.347Z,1.25
2023-03-31T19:20:45.923Z,1.60
2023-03-31T19:23:20.094Z,1.42
2023-03-31T19:28:40.678Z,1.40
2023-03-31T19:31:17.554Z,1.58
2023-03-31T19:36:49.627Z,1.65
2023-03-31T19:43:21.434Z,1.50
2023-03-31T19:45:26.101Z,1.40
2023-03-31T19:51:23.309Z,1.10
2023-03-31T20:02:34.163Z,1.23
2023-03-31T20:05:13.124Z,1.23
2023-03-31T20:08:10.830Z,1.17
2023-03-31T21:26:24.684Z,0.95
2023-03-31T21:32:23.770Z,1.35
2023-03-31T21:45:21.045Z,1.25
2023-03-31T21:47:41.854Z,0.98
2023-03-31T22:08:29.810Z,1.30
2023-03-31T22:20:10.537Z,1.20
2023-03-31T22:22:43.706Z,1.30
2023-03-31T22:28:07.082Z,1.50
2023-03-31T23:03:06.198Z,1.05
2023-03-31T23:05:47.054Z,1.02
2023-03-31T23:08:18.497Z,0.95
2023-03-31T23:11:02.784Z,1.10
2023-03-31T23:13:34.524Z,1.15
2023-03-31T23:16:20.396Z,1.05
2023-03-31T23:19:01.154Z,1.08
2023-03-31T23:21:38.744Z,1.20
2023-03-31T23:24:06.207Z,1.77
2023-03-31T23:26:35.015Z,1.02
2023-03-31T23:29:06.097Z,1.25
2023-03-31T23:31:39.086Z,1.08
2023-03-31T23:34:10.930Z,0.70
2023-03-31T23:36:38.852Z,1.00
2023-03-31T23:39:08.651Z,0.90
2023-03-31T23:41:44.979Z,1.85
2023-03-31T23:47:47.958Z,1.00
2023-03-31T23:50:23.732Z,1.23
2023-03-31T23:56:09.586Z,1.50
2023-03-31T23:58:41.072Z,1.63
